Time;durP1;ratioP1;P1;durP2;ratioP2;P2;SDS_P1;SDS_P2;PMS_P1;PMS_P2;Temp;Humidity;BMP_temperature;BMP_pressure;BME280_temperature;BME280_humidity;BME280_pressure;Samples;Min_cycle;Max_cycle;Signal;HPM_P1;HPM_P2
2022/07/05 00:00:57;;;;;;;12.90;10.75;;;25.40;1.00;;;;;;5113778;27;20027;-59
2022/07/05 00:03:22;;;;;;;9.55;7.65;;;25.60;1.00;;;;;;5114386;28;20027;-59
2022/07/05 00:05:49;;;;;;;16.73;13.02;;;25.70;1.00;;;;;;5095261;28;20036;-59
2022/07/05 00:08:14;;;;;;;12.68;8.80;;;25.80;1.00;;;;;;5113512;28;20369;-59
2022/07/05 00:10:40;;;;;;;10.57;9.00;;;25.80;1.00;;;;;;5113366;28;20023;-60
2022/07/05 00:13:06;;;;;;;18.52;14.10;;;25.80;1.00;;;;;;5114089;28;20042;-59
2022/07/05 00:15:32;;;;;;;13.27;11.45;;;25.70;1.00;;;;;;5113650;28;20028;-59
2022/07/05 00:17:58;;;;;;;19.80;17.00;;;25.60;1.00;;;;;;5114286;28;20522;-59
2022/07/05 00:20:24;;;;;;;7.13;5.75;;;25.50;1.00;;;;;;5113477;28;20039;-59
2022/07/05 00:22:50;;;;;;;7.03;5.50;;;25.40;1.00;;;;;;5113830;28;20130;-59
2022/07/05 00:25:16;;;;;;;13.85;12.40;;;25.40;1.00;;;;;;5112316;27;20118;-59
2022/07/05 00:27:42;;;;;;;8.20;6.10;;;25.40;1.00;;;;;;5090904;28;20384;-58
2022/07/05 00:30:08;;;;;;;22.02;17.00;;;25.30;1.00;;;;;;5108986;28;20027;-60
2022/07/05 00:32:34;;;;;;;11.20;8.25;;;25.10;1.00;;;;;;5113723;28;20523;-61
2022/07/05 00:35:00;;;;;;;15.93;9.95;;;25.00;1.00;;;;;;5093135;28;20123;-60
2022/07/05 00:37:26;;;;;;;36.40;17.75;;;24.30;1.00;;;;;;5113869;28;20024;-60
2022/07/05 00:39:51;;;;;;;23.35;16.38;;;23.30;11.00;;;;;;5110780;27;20031;-60
2022/07/05 00:42:17;;;;;;;26.75;19.50;;;23.40;11.60;;;;;;5113679;28;20141;-60
2022/07/05 00:44:43;;;;;;;18.48;14.23;;;23.40;4.50;;;;;;5112829;28;20035;-60
2022/07/05 00:47:10;;;;;;;17.65;13.93;;;23.60;1.00;;;;;;5113787;28;20024;-61
2022/07/05 00:49:37;;;;;;;45.97;35.25;;;23.90;1.00;;;;;;5112627;27;20038;-60
2022/07/05 00:52:03;;;;;;;36.88;26.58;;;24.40;1.00;;;;;;5113695;28;20037;-60
2022/07/05 00:54:32;;;;;;;15.77;13.90;;;24.50;1.00;;;;;;5112512;28;20032;-60
2022/07/05 00:56:58;;;;;;;32.53;27.05;;;24.70;1.00;;;;;;5113218;28;20038;-60
2022/07/05 00:59:25;;;;;;;24.13;20.17;;;24.80;1.00;;;;;;5112317;28;20035;-60
2022/07/05 01:01:50;;;;;;;14.25;10.93;;;24.80;1.00;;;;;;5113249;28;20024;-60
2022/07/05 01:04:16;;;;;;;22.00;15.50;;;24.80;1.00;;;;;;5112408;28;20027;-60
2022/07/05 01:06:44;;;;;;;19.35;15.05;;;24.80;1.00;;;;;;5112970;28;20016;-60
2022/07/05 01:09:15;;;;;;;6.28;4.15;;;24.70;1.00;;;;;;5092590;28;20023;-60
2022/07/05 01:11:45;;;;;;;7.57;5.88;;;24.60;1.00;;;;;;5110819;27;20492;-60
2022/07/05 01:14:15;;;;;;;7.13;2.85;;;24.40;1.00;;;;;;5097919;28;20142;-60
2022/07/05 01:16:40;;;;;;;3.85;2.72;;;24.30;1.00;;;;;;5110937;28;20032;-60
2022/07/05 01:19:07;;;;;;;3.15;2.55;;;24.50;1.00;;;;;;5111496;28;20042;-60
2022/07/05 01:21:36;;;;;;;5.45;3.15;;;24.60;1.00;;;;;;5111705;28;20073;-60
2022/07/05 01:24:02;;;;;;;7.88;4.05;;;24.50;1.00;;;;;;5111051;28;20039;-60
2022/07/05 01:26:28;;;;;;;6.88;4.10;;;24.30;1.00;;;;;;5112173;28;20020;-60
2022/07/05 01:28:53;;;;;;;6.10;4.07;;;24.40;1.00;;;;;;5111282;28;20028;-61
2022/07/05 01:31:19;;;;;;;11.93;4.85;;;24.40;1.00;;;;;;5112417;28;20465;-60
2022/07/05 01:33:44;;;;;;;8.95;4.82;;;24.50;2.40;;;;;;5110799;28;20062;-60
2022/07/05 01:36:12;;;;;;;7.70;4.57;;;24.20;4.50;;;;;;5110994;28;20163;-60
2022/07/05 01:38:37;;;;;;;6.53;4.07;;;24.30;6.20;;;;;;5110463;28;20031;-60
2022/07/05 01:41:03;;;;;;;5.50;3.83;;;24.40;3.90;;;;;;5111120;28;20080;-60
2022/07/05 01:43:29;;;;;;;6.40;4.13;;;24.70;3.00;;;;;;5112078;28;20498;-60
2022/07/05 01:45:56;;;;;;;6.10;4.03;;;24.70;3.20;;;;;;5111562;28;20400;-60
2022/07/05 01:48:22;;;;;;;3.83;3.53;;;24.80;1.60;;;;;;5106293;28;20099;-60
2022/07/05 01:51:01;;;;;;;6.43;3.95;;;25.00;1.30;;;;;;5108172;28;20110;-59
2022/07/05 01:53:31;;;;;;;5.53;4.10;;;24.90;3.20;;;;;;5098298;28;20084;-60
2022/07/05 01:55:58;;;;;;;5.97;4.00;;;24.90;2.10;;;;;;5111624;28;20023;-60
2022/07/05 01:58:29;;;;;;;5.82;3.95;;;24.60;1.40;;;;;;5112446;28;20020;-60
2022/07/05 02:00:56;;;;;;;7.65;4.00;;;24.70;1.40;;;;;;5111577;28;20038;-60
2022/07/05 02:03:22;;;;;;;5.03;3.60;;;24.60;1.00;;;;;;5111558;28;20019;-60
2022/07/05 02:05:48;;;;;;;9.23;4.50;;;24.80;1.40;;;;;;5111523;28;20435;-60
2022/07/05 02:08:15;;;;;;;4.97;4.40;;;24.60;1.90;;;;;;5106650;28;20058;-60
2022/07/05 02:10:42;;;;;;;9.23;4.43;;;24.40;3.60;;;;;;5105848;28;20365;-60
2022/07/05 02:13:08;;;;;;;6.57;3.40;;;24.20;3.70;;;;;;5112210;28;20051;-60
2022/07/05 02:15:36;;;;;;;5.65;3.58;;;24.30;2.00;;;;;;5111504;28;20038;-60
2022/07/05 02:18:03;;;;;;;6.18;3.38;;;24.30;1.90;;;;;;5111618;28;20062;-60
2022/07/05 02:20:30;;;;;;;5.25;3.08;;;24.40;1.50;;;;;;5079984;28;20136;-60
2022/07/05 02:22:56;;;;;;;4.95;2.80;;;24.60;1.00;;;;;;5110969;28;20039;-60
2022/07/05 02:25:22;;;;;;;5.30;3.28;;;24.50;1.00;;;;;;5107010;28;20777;-60
2022/07/05 02:27:49;;;;;;;4.15;2.60;;;24.70;1.00;;;;;;5106127;28;20016;-60
2022/07/05 02:30:15;;;;;;;6.38;3.20;;;24.70;1.00;;;;;;5105903;28;20544;-60
2022/07/05 02:32:41;;;;;;;3.97;3.10;;;24.60;1.00;;;;;;5111969;28;20426;-60
2022/07/05 02:35:08;;;;;;;5.78;3.00;;;24.80;1.00;;;;;;5109192;28;20020;-60
2022/07/05 02:37:34;;;;;;;6.68;3.13;;;24.80;1.00;;;;;;5114755;28;20040;-60
2022/07/05 02:40:00;;;;;;;3.35;3.05;;;24.80;1.00;;;;;;5114065;28;20104;-60
2022/07/05 02:42:26;;;;;;;3.58;2.97;;;24.60;1.00;;;;;;5116074;28;20366;-60
2022/07/05 02:44:51;;;;;;;5.70;2.90;;;24.60;1.00;;;;;;5115150;28;20710;-60
2022/07/05 02:47:17;;;;;;;4.85;3.00;;;24.80;1.00;;;;;;5116181;28;20024;-60
2022/07/05 02:49:42;;;;;;;6.05;3.25;;;24.60;1.00;;;;;;5113351;28;20474;-59
2022/07/05 02:52:08;;;;;;;5.25;3.22;;;24.30;1.00;;;;;;5115946;28;20020;-59
2022/07/05 02:54:34;;;;;;;5.50;3.83;;;24.30;1.00;;;;;;5115553;28;20052;-60
2022/07/05 02:57:00;;;;;;;4.47;3.55;;;24.40;1.00;;;;;;5115448;28;20101;-60
2022/07/05 02:59:26;;;;;;;3.92;3.28;;;24.40;1.00;;;;;;5115700;28;20131;-60
2022/07/05 03:01:51;;;;;;;7.50;3.30;;;24.30;1.00;;;;;;5113948;28;20069;-60
2022/07/05 03:04:17;;;;;;;5.15;3.47;;;24.20;1.00;;;;;;5102665;28;20110;-60
2022/07/05 03:06:43;;;;;;;5.95;4.18;;;24.30;1.00;;;;;;5114699;28;20039;-60
2022/07/05 03:09:08;;;;;;;5.20;3.50;;;24.30;1.00;;;;;;5115726;28;20421;-60
2022/07/05 03:11:34;;;;;;;4.80;3.72;;;24.20;1.00;;;;;;5114633;28;20366;-60
2022/07/05 03:14:00;;;;;;;6.22;3.72;;;24.20;1.00;;;;;;5096808;28;20039;-60
2022/07/05 03:16:25;;;;;;;4.72;3.28;;;24.20;1.00;;;;;;5091249;28;20032;-60
2022/07/05 03:18:51;;;;;;;4.88;3.45;;;24.30;1.00;;;;;;5112879;28;20027;-58
2022/07/05 03:21:17;;;;;;;4.45;3.30;;;24.40;1.00;;;;;;5108311;28;20039;-60
2022/07/05 03:23:43;;;;;;;6.15;3.72;;;24.20;1.00;;;;;;5115216;28;20044;-60
2022/07/05 03:26:08;;;;;;;3.80;3.20;;;24.20;1.00;;;;;;5114188;28;20039;-60
2022/07/05 03:28:34;;;;;;;8.75;3.70;;;24.10;1.00;;;;;;5115239;28;20030;-60
2022/07/05 03:31:00;;;;;;;4.63;3.25;;;24.10;1.00;;;;;;5114312;28;20042;-60
2022/07/05 03:33:26;;;;;;;3.67;3.20;;;24.10;1.00;;;;;;5115001;28;20035;-60
2022/07/05 03:35:51;;;;;;;6.57;3.80;;;24.20;1.00;;;;;;5114207;28;20059;-60
2022/07/05 03:38:17;;;;;;;3.72;3.08;;;24.20;1.00;;;;;;5108065;28;20035;-60
2022/07/05 03:40:43;;;;;;;4.43;3.13;;;24.20;1.00;;;;;;5104480;28;20027;-59
2022/07/05 03:43:08;;;;;;;6.32;3.10;;;23.90;1.00;;;;;;5100806;28;20042;-59
2022/07/05 03:45:34;;;;;;;6.03;3.05;;;24.10;1.00;;;;;;5113681;28;20065;-59
2022/07/05 03:48:00;;;;;;;5.15;3.20;;;24.10;1.00;;;;;;5130566;27;20023;-59
2022/07/05 03:50:27;;;;;;;5.30;3.50;;;24.20;1.00;;;;;;5113985;28;20023;-60
2022/07/05 03:52:53;;;;;;;3.22;2.90;;;24.20;1.00;;;;;;5114587;28;20023;-59
2022/07/05 03:55:18;;;;;;;5.43;3.60;;;24.10;1.00;;;;;;5114052;28;20460;-59
2022/07/05 03:57:45;;;;;;;5.32;3.17;;;24.20;1.00;;;;;;5114161;28;20024;-59
2022/07/05 04:00:12;;;;;;;5.93;2.80;;;24.20;1.00;;;;;;5113525;28;20040;-59
2022/07/05 04:02:37;;;;;;;4.20;3.58;;;24.20;1.00;;;;;;5114374;28;20110;-59
2022/07/05 04:05:04;;;;;;;4.35;3.25;;;24.10;1.00;;;;;;5113528;28;20509;-59
2022/07/05 04:07:29;;;;;;;6.10;3.30;;;24.00;1.00;;;;;;5114209;28;20051;-59
2022/07/05 04:09:55;;;;;;;5.80;3.53;;;24.10;1.00;;;;;;5113848;28;20020;-59
2022/07/05 04:12:21;;;;;;;6.72;3.70;;;23.90;1.00;;;;;;5095117;28;20495;-59
2022/07/05 04:14:46;;;;;;;6.75;3.30;;;24.00;1.00;;;;;;5114080;28;20023;-59
2022/07/05 04:17:12;;;;;;;3.63;3.00;;;24.10;1.00;;;;;;5111542;28;20054;-59
2022/07/05 04:19:38;;;;;;;5.03;3.50;;;24.00;1.00;;;;;;5113945;28;20035;-59
2022/07/05 04:22:03;;;;;;;7.43;3.58;;;24.10;1.00;;;;;;5113102;28;20130;-59
2022/07/05 04:24:29;;;;;;;4.43;3.90;;;23.80;1.00;;;;;;5113954;28;20044;-59
2022/07/05 04:26:55;;;;;;;3.58;3.20;;;23.90;1.00;;;;;;5113527;28;20034;-60
2022/07/05 04:29:20;;;;;;;6.03;4.43;;;23.90;1.00;;;;;;5095706;28;20456;-60
2022/07/05 04:31:46;;;;;;;5.07;3.67;;;23.80;1.00;;;;;;5112957;28;20031;-59
2022/07/05 04:40:55;;;;;;;6.40;4.10;;;23.90;1.00;;;;;;5102657;28;20128;-59
2022/07/05 04:43:21;;;;;;;9.10;3.75;;;23.90;1.00;;;;;;5094425;28;20035;-60
2022/07/05 04:45:47;;;;;;;5.68;4.25;;;23.90;1.00;;;;;;5113282;28;20024;-60
2022/07/05 04:48:13;;;;;;;4.70;4.30;;;23.80;1.00;;;;;;5113686;28;20023;-59
2022/07/05 04:50:38;;;;;;;4.65;4.15;;;23.80;1.00;;;;;;5113744;28;20084;-59
2022/07/05 04:53:04;;;;;;;6.00;4.72;;;23.80;1.00;;;;;;5113150;28;20024;-59
2022/07/05 04:55:30;;;;;;;4.57;4.13;;;23.50;1.00;;;;;;5112240;28;20063;-59
2022/07/05 04:57:55;;;;;;;4.60;4.20;;;23.60;1.00;;;;;;5112663;28;20019;-60
2022/07/05 05:00:21;;;;;;;4.50;3.70;;;23.80;1.00;;;;;;5112626;28;20043;-59
2022/07/05 05:02:49;;;;;;;4.60;3.90;;;23.90;1.00;;;;;;5113396;28;20100;-59
2022/07/05 05:05:14;;;;;;;4.47;4.00;;;23.60;1.00;;;;;;5111840;27;20469;-59
2022/07/05 05:07:44;;;;;;;6.63;4.20;;;23.60;1.00;;;;;;5112084;28;20028;-58
2022/07/05 05:10:10;;;;;;;5.75;3.95;;;23.70;1.00;;;;;;5111605;28;20421;-59
2022/07/05 05:12:36;;;;;;;5.97;3.67;;;23.70;1.00;;;;;;5113065;28;20151;-59
2022/07/05 05:15:02;;;;;;;6.05;4.20;;;23.90;1.00;;;;;;5111923;28;20393;-59
2022/07/05 05:17:42;;;;;;;4.22;3.47;;;23.70;1.00;;;;;;5112640;28;20027;-59
2022/07/05 05:20:12;;;;;;;5.38;3.80;;;23.70;1.00;;;;;;5102341;28;20381;-59
2022/07/05 05:22:38;;;;;;;3.80;3.38;;;23.80;1.00;;;;;;5094397;28;20036;-59
2022/07/05 05:25:04;;;;;;;3.67;3.10;;;24.00;1.00;;;;;;5101187;28;20023;-59
2022/07/05 05:27:30;;;;;;;5.78;2.88;;;24.00;1.00;;;;;;5112729;28;20106;-60
2022/07/05 05:29:56;;;;;;;4.57;3.45;;;24.00;1.00;;;;;;5093238;28;20035;-59
2022/07/05 05:32:21;;;;;;;4.18;3.55;;;24.00;1.00;;;;;;5112651;28;20066;-59
2022/07/05 05:34:47;;;;;;;3.47;3.13;;;24.00;1.00;;;;;;5111786;28;20138;-60
2022/07/05 05:37:13;;;;;;;7.32;3.00;;;24.20;1.00;;;;;;5112492;28;20488;-60
2022/07/05 05:39:38;;;;;;;5.78;2.92;;;24.20;1.00;;;;;;5093684;28;20035;-59
2022/07/05 05:42:04;;;;;;;3.70;3.40;;;24.10;1.00;;;;;;5112539;28;20425;-59
2022/07/05 05:44:30;;;;;;;6.97;3.55;;;24.30;1.00;;;;;;5111480;28;20024;-60
2022/07/05 05:46:55;;;;;;;7.50;3.72;;;24.20;1.00;;;;;;5107914;28;20027;-59
2022/07/05 05:49:21;;;;;;;4.22;3.00;;;24.30;1.00;;;;;;5107594;28;20083;-59
2022/07/05 05:51:47;;;;;;;5.28;2.97;;;24.20;1.00;;;;;;5109409;28;20314;-60
2022/07/05 05:54:12;;;;;;;3.58;2.90;;;24.30;1.00;;;;;;5110514;28;20032;-60
2022/07/05 05:56:38;;;;;;;4.10;2.90;;;24.40;1.00;;;;;;5127287;27;20023;-60
2022/07/05 05:59:03;;;;;;;4.03;3.03;;;24.40;1.00;;;;;;5111560;28;20028;-60
2022/07/05 06:01:30;;;;;;;3.78;3.00;;;24.40;1.00;;;;;;5092168;28;20414;-60
2022/07/05 06:03:55;;;;;;;4.93;2.83;;;24.40;1.00;;;;;;5112186;28;20020;-60
2022/07/05 06:06:21;;;;;;;3.95;2.90;;;24.60;1.00;;;;;;5111150;28;20050;-59
2022/07/05 06:08:46;;;;;;;9.93;3.58;;;24.50;1.00;;;;;;5111932;28;20384;-60
2022/07/05 06:11:13;;;;;;;6.57;3.47;;;24.50;1.00;;;;;;5111194;28;20031;-60
2022/07/05 06:13:39;;;;;;;3.60;3.28;;;24.50;1.00;;;;;;5111406;28;20024;-61
2022/07/05 06:16:08;;;;;;;4.72;3.00;;;24.50;1.00;;;;;;5092626;28;20024;-61
2022/07/05 06:18:34;;;;;;;5.78;3.13;;;24.60;1.00;;;;;;5111142;28;20058;-60
2022/07/05 06:21:00;;;;;;;6.10;2.90;;;24.70;1.00;;;;;;5110767;28;20105;-61
2022/07/05 06:23:26;;;;;;;5.38;3.30;;;24.70;1.00;;;;;;5111980;28;20524;-60
2022/07/05 06:25:51;;;;;;;5.63;3.05;;;24.60;1.00;;;;;;5111623;28;20435;-60
2022/07/05 06:28:17;;;;;;;4.30;3.50;;;24.60;1.00;;;;;;5112138;28;20038;-60
2022/07/05 06:30:45;;;;;;;4.60;3.50;;;24.60;1.00;;;;;;5099340;28;20024;-62
2022/07/05 06:33:11;;;;;;;5.80;3.30;;;24.60;1.00;;;;;;5105933;28;20020;-71
2022/07/05 06:35:37;;;;;;;3.85;3.50;;;24.70;1.00;;;;;;5111991;28;20039;-67
2022/07/05 06:38:07;;;;;;;4.50;2.53;;;24.80;1.00;;;;;;5106255;28;20398;-65
2022/07/05 06:40:37;;;;;;;3.47;2.13;;;24.80;1.00;;;;;;5103915;28;20032;-63
2022/07/05 06:43:05;;;;;;;4.35;1.95;;;24.80;1.00;;;;;;5121176;28;20035;-66
2022/07/05 06:45:31;;;;;;;4.70;2.88;;;24.90;1.00;;;;;;5091316;28;20027;-65
2022/07/05 06:48:05;;;;;;;6.82;2.63;;;24.90;1.00;;;;;;5112541;28;20024;-62
2022/07/05 06:50:33;;;;;;;4.88;2.90;;;25.00;1.00;;;;;;5111827;28;20050;-66
2022/07/05 06:52:59;;;;;;;5.07;3.40;;;25.00;1.00;;;;;;5112425;28;20031;-55
2022/07/05 06:55:27;;;;;;;7.38;3.05;;;25.10;1.00;;;;;;5111560;28;20361;-59
2022/07/05 06:58:06;;;;;;;5.18;2.60;;;25.10;1.00;;;;;;5111823;28;20047;-59
2022/07/05 07:00:33;;;;;;;4.28;3.85;;;25.20;1.00;;;;;;5111397;28;20337;-63
2022/07/05 07:02:59;;;;;;;4.45;3.35;;;25.30;1.00;;;;;;5112020;28;20027;-70
2022/07/05 07:05:25;;;;;;;5.90;3.25;;;25.30;1.00;;;;;;5111573;28;20481;-62
2022/07/05 07:10:35;;;;;;;3.58;3.28;;;25.40;1.00;;;;;;5111349;28;20119;-62
2022/07/05 07:13:02;;;;;;;5.20;3.45;;;25.40;1.00;;;;;;5112272;28;20114;-64
2022/07/05 07:15:28;;;;;;;2.80;2.60;;;25.40;1.00;;;;;;5110485;28;20028;-62
2022/07/05 07:17:54;;;;;;;4.88;2.85;;;25.40;1.00;;;;;;5112213;28;20033;-64
2022/07/05 07:20:20;;;;;;;3.58;2.55;;;25.50;1.00;;;;;;5112686;28;20107;-63
2022/07/05 07:22:45;;;;;;;4.22;2.08;;;25.50;1.00;;;;;;5096893;28;20055;-63
2022/07/05 07:25:14;;;;;;;4.28;2.25;;;25.60;1.00;;;;;;5115931;28;20089;-64
2022/07/05 07:27:47;;;;;;;3.33;2.60;;;25.60;1.00;;;;;;5096111;28;20030;-67
2022/07/05 07:30:21;;;;;;;3.03;2.70;;;25.60;1.00;;;;;;5110195;28;20476;-71
2022/07/05 07:32:47;;;;;;;3.97;2.22;;;25.70;1.00;;;;;;5114181;28;20047;-62
2022/07/05 07:35:13;;;;;;;4.35;2.58;;;25.70;1.00;;;;;;5110764;27;20035;-63
2022/07/05 07:37:39;;;;;;;5.38;2.50;;;25.90;1.00;;;;;;5086921;28;20077;-61
2022/07/05 07:40:06;;;;;;;5.43;3.05;;;25.90;1.00;;;;;;5113020;27;20083;-62
2022/07/05 07:42:31;;;;;;;3.10;2.38;;;25.90;1.00;;;;;;5113937;27;20061;-64
2022/07/05 07:44:57;;;;;;;5.43;2.75;;;25.90;1.00;;;;;;5111501;27;20405;-63
2022/07/05 07:47:23;;;;;;;4.93;2.78;;;26.00;1.00;;;;;;5090873;28;20034;-64
2022/07/05 07:49:49;;;;;;;5.53;3.20;;;26.10;1.00;;;;;;5114002;27;20114;-57
2022/07/05 07:52:15;;;;;;;4.65;2.60;;;26.10;1.00;;;;;;5114149;28;20157;-60
2022/07/05 07:54:40;;;;;;;4.43;2.50;;;26.10;1.00;;;;;;5113788;28;20028;-66
2022/07/05 07:57:06;;;;;;;3.60;2.80;;;26.20;1.00;;;;;;5115244;28;20031;-63
2022/07/05 07:59:32;;;;;;;4.90;2.80;;;26.30;1.00;;;;;;5114418;28;20031;-65
2022/07/05 08:01:58;;;;;;;5.60;2.53;;;26.30;1.00;;;;;;5113630;28;20020;-64
2022/07/05 08:04:23;;;;;;;3.25;2.22;;;26.40;1.00;;;;;;5113711;28;20023;-67
2022/07/05 08:06:49;;;;;;;3.08;2.17;;;26.30;1.00;;;;;;5110791;28;20028;-67
2022/07/05 08:09:14;;;;;;;5.25;2.95;;;26.40;1.00;;;;;;5114270;28;20028;-66
2022/07/05 08:11:40;;;;;;;7.63;3.28;;;26.50;1.00;;;;;;5112728;28;20373;-61
2022/07/05 08:14:06;;;;;;;3.33;2.22;;;26.50;1.00;;;;;;5128714;27;20039;-60
2022/07/05 08:16:32;;;;;;;5.68;2.80;;;26.50;1.00;;;;;;5107992;28;20031;-59
2022/07/05 08:21:42;;;;;;;2.53;1.92;;;26.50;1.00;;;;;;5113543;28;20354;-63
2022/07/05 08:24:10;;;;;;;4.28;2.30;;;26.70;1.00;;;;;;5113631;28;20048;-59
2022/07/05 08:26:36;;;;;;;3.28;2.42;;;26.80;1.00;;;;;;5094829;27;20078;-63
2022/07/05 08:29:07;;;;;;;4.53;2.63;;;26.80;1.00;;;;;;5113825;28;20055;-59
2022/07/05 08:31:36;;;;;;;4.15;2.40;;;26.80;1.00;;;;;;5112958;28;20068;-70
2022/07/05 08:34:03;;;;;;;4.75;3.35;;;26.80;1.00;;;;;;5129215;27;20027;-61
2022/07/05 08:36:29;;;;;;;5.70;2.85;;;26.90;1.00;;;;;;5112947;28;20037;-62
2022/07/05 08:38:54;;;;;;;6.07;3.10;;;27.00;1.00;;;;;;5095321;28;20055;-53
2022/07/05 08:41:21;;;;;;;5.47;2.67;;;27.00;1.00;;;;;;5113090;28;20054;-64
2022/07/05 08:43:48;;;;;;;5.38;3.78;;;27.10;1.00;;;;;;5112286;27;20032;-60
2022/07/05 08:46:15;;;;;;;3.47;2.78;;;27.10;1.00;;;;;;5113244;28;20376;-62
2022/07/05 08:48:43;;;;;;;4.30;3.33;;;27.10;1.00;;;;;;5094092;28;20042;-61
2022/07/05 08:51:23;;;;;;;6.32;3.03;;;27.10;1.00;;;;;;5094696;28;20027;-61
2022/07/05 08:53:52;;;;;;;4.72;3.67;;;27.20;1.00;;;;;;5110492;27;20027;-61
2022/07/05 08:56:18;;;;;;;3.22;2.85;;;27.20;1.00;;;;;;5112602;28;20080;-61
2022/07/05 08:58:44;;;;;;;5.30;3.38;;;27.30;1.00;;;;;;5112333;28;20012;-63
2022/07/05 09:01:11;;;;;;;3.70;2.92;;;27.30;1.00;;;;;;5128427;27;20073;-65
2022/07/05 09:03:44;;;;;;;3.47;3.17;;;27.40;1.00;;;;;;5112343;28;20020;-64
2022/07/05 09:06:17;;;;;;;7.22;3.17;;;27.50;1.00;;;;;;5102936;28;20024;-57
2022/07/05 09:08:44;;;;;;;5.88;3.70;;;27.50;1.00;;;;;;5106967;28;20024;-70
2022/07/05 09:11:12;;;;;;;3.63;3.33;;;27.50;1.00;;;;;;5113040;28;20028;-70
2022/07/05 09:13:40;;;;;;;6.05;3.33;;;27.60;1.00;;;;;;5098676;28;20088;-69
2022/07/05 09:16:07;;;;;;;5.47;3.33;;;27.70;1.00;;;;;;5082125;28;20116;-69
2022/07/05 09:18:40;;;;;;;4.13;3.60;;;27.60;1.00;;;;;;5111627;27;20096;-69
2022/07/05 09:21:17;;;;;;;3.70;3.40;;;27.70;1.00;;;;;;5110228;28;20080;-70
2022/07/05 09:23:44;;;;;;;5.18;4.00;;;27.80;1.00;;;;;;5112082;28;20515;-69
2022/07/05 09:26:10;;;;;;;4.15;3.35;;;27.90;1.00;;;;;;5111981;28;20131;-70
2022/07/05 09:28:36;;;;;;;3.97;3.30;;;27.90;1.00;;;;;;5112307;28;20149;-69
2022/07/05 09:31:02;;;;;;;6.90;4.35;;;27.90;1.00;;;;;;5112613;27;20392;-69
2022/07/05 09:33:28;;;;;;;6.55;3.20;;;27.90;1.00;;;;;;5103597;28;20036;-69
2022/07/05 09:35:57;;;;;;;6.68;4.30;;;28.00;1.00;;;;;;5110255;28;20097;-69
2022/07/05 09:38:24;;;;;;;6.28;3.88;;;28.00;1.00;;;;;;5112482;28;20077;-69
2022/07/05 09:40:53;;;;;;;5.20;3.67;;;28.00;1.00;;;;;;5093717;28;20077;-69
2022/07/05 09:43:22;;;;;;;4.97;3.70;;;28.00;1.00;;;;;;5112718;28;20035;-69
2022/07/05 09:45:55;;;;;;;4.80;3.65;;;28.00;1.00;;;;;;5111905;28;20034;-68
2022/07/05 09:48:21;;;;;;;5.38;4.03;;;28.20;1.00;;;;;;5111223;28;20530;-68
2022/07/05 09:50:48;;;;;;;4.93;4.40;;;28.40;1.00;;;;;;5112081;28;20020;-69
2022/07/05 09:53:14;;;;;;;6.18;3.80;;;28.40;1.00;;;;;;5112739;28;20041;-69
2022/07/05 09:55:40;;;;;;;5.00;3.72;;;28.30;1.00;;;;;;5112198;28;20110;-69
2022/07/05 09:58:07;;;;;;;4.60;4.20;;;28.40;1.00;;;;;;5077558;28;20025;-70
2022/07/05 10:00:33;;;;;;;5.80;3.58;;;28.50;1.00;;;;;;5111304;28;20034;-69
2022/07/05 10:03:01;;;;;;;8.48;3.58;;;28.50;1.00;;;;;;5112535;28;20035;-69
2022/07/05 10:05:29;;;;;;;4.05;3.65;;;28.60;1.00;;;;;;5111834;28;20401;-69
2022/07/05 10:07:59;;;;;;;4.30;3.88;;;28.50;1.00;;;;;;5112881;28;20024;-69
2022/07/05 10:10:29;;;;;;;4.28;3.80;;;28.60;1.00;;;;;;5111867;28;20102;-69
2022/07/05 10:13:00;;;;;;;4.85;3.92;;;28.90;1.00;;;;;;5112662;28;20384;-69
2022/07/05 10:15:31;;;;;;;4.50;3.95;;;28.80;1.00;;;;;;5111843;28;20062;-69
2022/07/05 10:18:03;;;;;;;4.30;3.95;;;28.80;1.00;;;;;;5110891;28;20380;-68
2022/07/05 10:20:48;;;;;;;4.47;4.07;;;28.80;1.00;;;;;;5112009;28;20038;-68
2022/07/05 10:23:16;;;;;;;4.53;3.55;;;29.00;1.00;;;;;;5112274;28;20481;-68
2022/07/05 10:25:48;;;;;;;4.38;3.95;;;29.00;1.00;;;;;;5111835;28;20031;-68
2022/07/05 10:28:14;;;;;;;5.82;3.42;;;29.10;1.00;;;;;;5112412;28;20028;-68
2022/07/05 10:30:40;;;;;;;4.32;3.75;;;29.30;1.00;;;;;;5111890;28;20491;-68
2022/07/05 10:33:07;;;;;;;7.43;4.00;;;29.40;1.00;;;;;;5112098;28;20066;-68
2022/07/05 10:35:34;;;;;;;4.72;3.75;;;29.40;1.00;;;;;;5111697;28;20120;-68
2022/07/05 10:38:01;;;;;;;5.90;4.13;;;29.30;1.00;;;;;;5112226;28;20478;-68
2022/07/05 10:40:29;;;;;;;5.10;3.67;;;29.40;1.00;;;;;;5111542;28;20063;-68
2022/07/05 10:42:56;;;;;;;5.22;3.28;;;29.50;1.00;;;;;;5112497;28;20107;-68
2022/07/05 10:45:28;;;;;;;3.45;3.17;;;29.60;1.00;;;;;;5111342;28;20023;-67
2022/07/05 10:48:13;;;;;;;5.63;3.80;;;29.80;1.00;;;;;;5112732;28;20031;-68
2022/07/05 10:51:08;;;;;;;4.55;3.72;;;29.90;1.00;;;;;;5111838;28;20069;-68
2022/07/05 10:53:36;;;;;;;;;;;29.90;1.00;;;;;;5085039;28;20490;-67
2022/07/05 10:56:05;;;;;;;3.70;3.22;;;29.90;1.00;;;;;;5112279;27;19915;-68
2022/07/05 10:58:38;;;;;;;4.43;3.58;;;30.10;1.00;;;;;;5115365;28;20115;-68
2022/07/05 11:01:18;;;;;;;4.55;4.13;;;30.10;1.00;;;;;;5115594;28;20019;-68
2022/07/05 11:03:48;;;;;;;4.05;3.63;;;30.30;1.00;;;;;;5115969;28;20106;-68
2022/07/05 11:06:23;;;;;;;8.13;4.68;;;30.30;1.00;;;;;;5112367;28;20523;-67
2022/07/05 11:09:00;;;;;;;9.10;4.80;;;30.40;1.00;;;;;;5115684;28;20476;-68
2022/07/05 11:11:40;;;;;;;3.55;3.25;;;30.50;1.00;;;;;;5114504;28;20098;-64
2022/07/05 11:14:21;;;;;;;4.18;3.60;;;30.60;1.00;;;;;;5096051;28;20043;-64
2022/07/05 11:17:06;;;;;;;3.80;3.40;;;30.90;1.00;;;;;;5111987;28;20024;-63
2022/07/05 11:19:32;;;;;;;10.50;4.10;;;31.00;1.00;;;;;;5110863;28;20027;-64
2022/07/05 11:22:05;;;;;;;9.23;5.28;;;31.00;1.00;;;;;;5115314;28;20110;-64
2022/07/05 11:24:38;;;;;;;4.78;4.38;;;31.10;1.00;;;;;;5115549;28;20118;-64
2022/07/05 11:27:09;;;;;;;4.20;3.83;;;31.80;1.00;;;;;;5114947;28;20072;-64
2022/07/05 11:29:45;;;;;;;5.43;4.53;;;34.60;1.00;;;;;;5115604;28;20480;-64
2022/07/05 11:32:15;;;;;;;5.25;4.57;;;35.00;1.00;;;;;;5114749;28;20036;-65
2022/07/05 11:34:43;;;;;;;4.95;4.50;;;35.70;1.00;;;;;;5113301;28;20035;-64
2022/07/05 11:37:24;;;;;;;5.90;4.30;;;35.60;1.00;;;;;;5114449;28;20380;-64
2022/07/05 11:40:09;;;;;;;6.57;4.47;;;35.90;1.00;;;;;;5115523;28;20047;-64
2022/07/05 11:42:37;;;;;;;4.03;3.72;;;35.80;1.00;;;;;;5114665;28;20130;-64
2022/07/05 11:45:05;;;;;;;6.85;5.18;;;34.70;1.00;;;;;;5114698;28;20118;-64
2022/07/05 11:47:30;;;;;;;5.63;4.57;;;34.70;1.00;;;;;;5114473;28;20030;-64
2022/07/05 11:49:57;;;;;;;5.00;4.50;;;35.10;1.00;;;;;;5114542;28;20039;-64
2022/07/05 11:52:30;;;;;;;4.90;4.50;;;35.40;1.00;;;;;;5114291;27;20095;-64
2022/07/05 11:55:01;;;;;;;8.13;5.00;;;36.20;1.00;;;;;;5097000;27;20694;-64
2022/07/05 11:57:27;;;;;;;4.35;4.00;;;37.70;1.00;;;;;;5095669;28;20024;-64
2022/07/05 11:59:53;;;;;;;5.13;4.50;;;39.00;1.00;;;;;;5114485;28;20538;-64
2022/07/05 12:02:19;;;;;;;5.00;4.30;;;40.00;1.00;;;;;;5114067;28;20489;-64
2022/07/05 12:04:49;;;;;;;4.60;4.20;;;40.70;1.00;;;;;;5114784;28;20079;-64
2022/07/05 12:07:32;;;;;;;4.75;4.45;;;40.30;1.00;;;;;;5113645;28;20027;-64
2022/07/05 12:12:43;;;;;;;5.20;4.70;;;39.10;1.00;;;;;;5113990;27;20084;-64
2022/07/05 12:15:13;;;;;;;4.97;4.60;;;39.50;1.00;;;;;;5113022;27;20036;-64
2022/07/05 12:17:41;;;;;;;5.32;4.72;;;39.60;1.00;;;;;;5113094;27;20084;-64
2022/07/05 12:20:09;;;;;;;4.72;4.32;;;39.40;1.00;;;;;;5113699;28;20031;-65
2022/07/05 12:22:42;;;;;;;5.43;4.90;;;39.00;1.00;;;;;;5113534;28;20039;-63
2022/07/05 12:25:09;;;;;;;;;;;38.50;1.00;;;;;;5114237;27;20080;-64
2022/07/05 12:27:37;;;;;;;5.07;4.68;;;37.70;1.00;;;;;;5113727;28;19914;-64
2022/07/05 12:30:04;;;;;;;5.57;4.40;;;37.50;1.00;;;;;;5114041;27;20376;-64
2022/07/05 12:32:30;;;;;;;5.15;4.72;;;37.40;1.00;;;;;;5113110;28;20032;-64
2022/07/05 12:34:56;;;;;;;4.90;4.50;;;37.50;1.00;;;;;;5113579;27;20047;-64
2022/07/05 12:37:23;;;;;;;4.97;4.68;;;37.60;1.00;;;;;;5113392;28;20023;-64
2022/07/05 12:40:00;;;;;;;5.43;4.93;;;37.60;1.00;;;;;;5113974;28;20024;-64
2022/07/05 12:42:32;;;;;;;5.50;4.88;;;38.60;1.00;;;;;;5109419;28;20077;-65
2022/07/05 12:45:13;;;;;;;5.40;4.90;;;39.30;1.00;;;;;;5111633;28;20039;-65
2022/07/05 12:47:49;;;;;;;5.38;5.00;;;39.50;1.00;;;;;;5111473;28;20023;-64
2022/07/05 12:50:15;;;;;;;5.55;5.07;;;41.70;1.00;;;;;;5100814;28;20020;-64
2022/07/05 12:53:00;;;;;;;6.35;5.82;;;42.90;1.00;;;;;;5111124;28;20045;-65
2022/07/05 12:58:20;;;;;;;5.38;5.05;;;43.20;1.00;;;;;;5113633;28;20039;-65
2022/07/05 13:00:46;;;;;;;6.03;5.38;;;44.10;1.00;;;;;;5107405;28;20017;-65
2022/07/05 13:03:12;;;;;;;5.28;4.85;;;43.90;1.00;;;;;;5112408;28;20116;-65
2022/07/05 13:05:37;;;;;;;5.63;5.22;;;42.10;1.00;;;;;;5113712;28;20409;-65
2022/07/05 13:08:03;;;;;;;5.47;5.07;;;40.70;1.00;;;;;;5078016;28;20027;-65
2022/07/05 13:10:32;;;;;;;5.40;5.10;;;39.80;1.00;;;;;;5109532;28;20027;-65
2022/07/05 13:12:58;;;;;;;5.18;4.88;;;39.20;1.00;;;;;;5112336;28;20024;-65
2022/07/05 13:15:24;;;;;;;5.38;4.90;;;38.80;1.00;;;;;;5113721;28;20043;-65